Terminal Aerodrome Forecast
Issued by NWS Cleveland, OH

Home | Current Version | Previous Version | Graphics & Text | Print | Product List | Glossary On
Versions: 1 2 3 4 5 6 7 8 9 10 11 12 13 14 15 16 17 18 19 20 21 22 23 24 25 26 27 28
000
FTUS41 KCLE 260500
TAFCLE
TAF
KCLE 260527Z 2606/2712 04014KT 2SM -SN OVC020
      TEMPO 2606/2608 1SM -SN OVC012
     FM260800 03014KT 5SM -SN OVC025
      TEMPO 2608/2612 2SM -SN OVC012
     FM261500 36012KT 6SM -SN OVC035
     FM262000 36012KT P6SM OVC045
     FM270200 35008KT P6SM OVC020=

USA.gov is the U.S. government's official web portal to all federal, state and local government web resources and services.